Upstream stations:
Downstream station:
SHEF ID: WANO2 Cimarron River near Waynoka, OK
STATION TYPE:
Regulating: Stage = 9.00, Flow = 4005
PRECIP STAGE RIV-FLOW BAT-LOAD
in ft cfs volt
Ccp-Rev Ccp-Rev Ccp-Rev Ccp-Rev
(US/Central)
01/20 00:00 0.00 5.64 34 12.65
01/20 01:00 0.00 5.59 27 12.65
01/20 02:00 0.00 5.63 32 12.65
01/20 03:00 0.00 5.63 32 12.65
01/20 04:00 0.00 5.63 32 12.65
01/20 05:00 0.00 5.64 34 12.57
01/20 06:00 0.00 5.64 34 12.57
01/20 07:00 0.00 5.65 36 12.57
01/20 08:00 0.00 5.64 34 12.49
01/20 09:00 0.00 5.65 36 12.57
01/20 10:00 0.00 5.65 36 12.81
01/20 11:00 0.00 5.63 32 13.60
01/20 12:00 0.00 5.63 32 14.00
01/20 13:00 0.00 5.63 32 14.00
01/20 14:00 0.00 5.62 31 13.92
01/20 15:00 0.00 5.62 31 13.84
01/20 16:00 0.00 5.62 31 13.84
01/20 17:00 0.00 5.61 29 13.76
01/20 18:00 0.00 5.62 31 13.60
01/20 19:00 0.00 5.64 34 13.29
01/20 20:00 0.00 5.63 32 12.97
01/20 21:00 0.00 5.62 31 12.81
01/20 22:00 0.00 5.63 32 12.73
01/20 23:00 0.00 5.63 32 12.73